Terminal Aerodrome Forecast
Issued by NWS

Home | Current Version | Previous Version | Graphics & Text | Print | Product List | Glossary On
Versions: 1 2 3 4 5 6 7 8 9 10 11 12 13 14
146
FTUS43 KTOP 201740
TAFMHK
TAF
KMHK 201740Z 2018/2118 17019G28KT P6SM FEW030
     FM210300 18018G26KT P6SM SCT030 WS020/19060KT
     FM210500 18016G26KT P6SM BKN015 WS020/19060KT
     FM211300 19015G28KT P6SM BKN015=

USA.gov is the U.S. government's official web portal to all federal, state and local government web resources and services.